createdAt,value
2022-12-11T00:02:02.256Z,0.08
2022-12-11T00:04:28.972Z,0.08
2022-12-11T00:06:55.535Z,0.06
2022-12-11T00:09:22.643Z,-0.08
2022-12-11T00:11:49.344Z,0.04
2022-12-11T00:14:16.068Z,0.11
2022-12-11T00:16:42.717Z,0.10
2022-12-11T00:19:09.428Z,0.07
2022-12-11T00:21:36.110Z,0.06
2022-12-11T00:24:02.794Z,0.02
2022-12-11T00:26:29.573Z,0.08
2022-12-11T00:28:57.080Z,0.13
2022-12-11T00:31:24.148Z,0.08
2022-12-11T00:33:51.447Z,0.10
2022-12-11T00:36:21.264Z,0.10
2022-12-11T00:38:48.863Z,0.18
2022-12-11T00:41:16.526Z,0.07
2022-12-11T00:43:43.276Z,0.15
2022-12-11T00:46:11.137Z,0.13
2022-12-11T00:48:38.426Z,0.08
2022-12-11T00:51:05.767Z,0.07
2022-12-11T00:53:32.448Z,0.08
2022-12-11T00:55:59.059Z,0.07
2022-12-11T00:58:25.640Z,0.18
2022-12-11T01:00:53.253Z,0.19
2022-12-11T01:03:20.027Z,0.17
2022-12-11T01:05:54.324Z,0.24
2022-12-11T01:08:21.418Z,0.20
2022-12-11T01:10:48.145Z,0.11
2022-12-11T01:13:15.735Z,0.13
2022-12-11T01:15:44.808Z,0.06
2022-12-11T01:18:13.516Z,-0.01
2022-12-11T01:20:43.224Z,-0.09
2022-12-11T01:23:13.908Z,-0.14
2022-12-11T01:25:41.256Z,-0.10
2022-12-11T01:28:09.068Z,-0.05
2022-12-11T01:30:36.688Z,-0.06
2022-12-11T01:33:03.658Z,-0.03
2022-12-11T01:35:30.320Z,-0.02
2022-12-11T01:37:56.999Z,0.04
2022-12-11T01:40:23.623Z,-0.01
2022-12-11T01:42:50.233Z,0.02
2022-12-11T01:45:33.317Z,0.07
2022-12-11T01:48:05.423Z,0.03
2022-12-11T01:50:36.179Z,0.09
2022-12-11T01:53:06.487Z,0.06
2022-12-11T01:55:34.242Z,0.05
2022-12-11T01:58:02.320Z,0.12
2022-12-11T02:00:28.905Z,0.15
2022-12-11T02:02:55.556Z,0.03
2022-12-11T02:05:22.212Z,-0.02
2022-12-11T02:07:54.212Z,-0.03
2022-12-11T02:10:24.521Z,-0.02
2022-12-11T02:13:04.783Z,-0.16
2022-12-11T02:15:39.700Z,-0.14
2022-12-11T02:18:25.486Z,-0.20
2022-12-11T02:21:13.433Z,-0.10
2022-12-11T02:24:12.173Z,-0.05
2022-12-11T02:27:20.070Z,-0.07
2022-12-11T02:30:03.158Z,-0.21
2022-12-11T02:32:51.800Z,-0.20
2022-12-11T02:35:24.628Z,-0.12
2022-12-11T02:37:57.765Z,-0.17
2022-12-11T02:40:28.468Z,-0.14
2022-12-11T02:42:58.041Z,-0.20
2022-12-11T02:45:26.321Z,-0.25
2022-12-11T02:47:53.042Z,-0.20
2022-12-11T02:50:23.513Z,-0.14
2022-12-11T02:52:54.093Z,-0.03
2022-12-11T02:55:20.848Z,-0.15
2022-12-11T02:58:03.270Z,-0.36
2022-12-11T03:00:30.959Z,-0.33
2022-12-11T03:02:58.050Z,-0.39
2022-12-11T03:05:24.774Z,-0.40
2022-12-11T03:07:51.438Z,-0.41
2022-12-11T03:10:19.872Z,-0.50
2022-12-11T03:12:53.379Z,-0.51
2022-12-11T03:15:24.061Z,-0.46
2022-12-11T03:18:09.822Z,-0.36
2022-12-11T03:20:45.608Z,-0.43
2022-12-11T03:23:39.472Z,-0.50
2022-12-11T03:26:10.632Z,-0.62
2022-12-11T03:28:47.160Z,-0.55
2022-12-11T03:31:23.199Z,-0.50
2022-12-11T03:33:54.395Z,-0.47
2022-12-11T03:36:27.426Z,-0.50
2022-12-11T03:39:02.017Z,-0.40
2022-12-11T03:41:32.761Z,-0.47
2022-12-11T03:43:59.419Z,-0.50
2022-12-11T03:46:33.286Z,-0.47
2022-12-11T03:49:07.465Z,-0.50
2022-12-11T03:51:35.578Z,-0.55
2022-12-11T03:54:02.726Z,-0.48
2022-12-11T03:56:32.499Z,-0.43
2022-12-11T03:58:59.094Z,-0.51
2022-12-11T04:01:25.743Z,-0.47
2022-12-11T04:03:52.395Z,-0.45
2022-12-11T04:06:19.193Z,-0.48
2022-12-11T04:08:45.793Z,-0.49
2022-12-11T04:11:31.175Z,-0.42
2022-12-11T04:14:16.228Z,-0.46
2022-12-11T04:16:42.829Z,-0.60
2022-12-11T04:19:30.380Z,-0.63
2022-12-11T04:22:15.667Z,-0.58
2022-12-11T04:24:42.286Z,-0.66
2022-12-11T04:27:09.029Z,-0.68
2022-12-11T04:29:35.676Z,-0.68
2022-12-11T04:32:02.283Z,-0.74
2022-12-11T04:34:29.086Z,-0.81
2022-12-11T04:36:55.712Z,-0.71
2022-12-11T04:39:22.318Z,-0.71
2022-12-11T04:41:48.889Z,-0.84
2022-12-11T04:44:15.484Z,-0.66
2022-12-11T04:46:42.140Z,-0.75
2022-12-11T04:49:10.039Z,-0.73
2022-12-11T04:51:36.724Z,-0.69
2022-12-11T04:54:03.365Z,-0.85
2022-12-11T04:56:29.928Z,-0.79
2022-12-11T04:58:56.526Z,-0.69
2022-12-11T05:01:23.411Z,-0.60
2022-12-11T05:03:50.397Z,-0.62
2022-12-11T05:06:17.224Z,-0.59
2022-12-11T05:08:45.126Z,-0.62
2022-12-11T05:11:14.831Z,-0.71
2022-12-11T05:13:42.200Z,-0.61
2022-12-11T05:16:10.591Z,-0.51
2022-12-11T05:18:37.461Z,-0.55
2022-12-11T05:21:07.485Z,-0.69
2022-12-11T05:23:34.730Z,-0.65
2022-12-11T05:26:07.161Z,-0.73
2022-12-11T05:28:35.249Z,-0.74
2022-12-11T05:31:22.730Z,-0.85
2022-12-11T05:33:50.387Z,-1.05
2022-12-11T05:36:23.239Z,-1.02
2022-12-11T05:38:50.125Z,-0.98
2022-12-11T05:41:19.612Z,-1.25
2022-12-11T05:43:46.296Z,-1.21
2022-12-11T05:46:15.971Z,-1.21
2022-12-11T05:48:43.908Z,-1.37
2022-12-11T05:51:11.188Z,-1.18
2022-12-11T05:53:39.243Z,-1.39
2022-12-11T05:56:14.644Z,-1.39
2022-12-11T05:58:41.914Z,-1.37
2022-12-11T06:01:14.589Z,-1.30
2022-12-11T06:03:41.565Z,-1.27
2022-12-11T06:06:08.655Z,-1.14
2022-12-11T06:08:35.590Z,-1.14
2022-12-11T06:11:03.301Z,-1.12
2022-12-11T06:13:30.223Z,-1.16
2022-12-11T06:16:04.274Z,-1.21
2022-12-11T06:18:31.728Z,-1.17
2022-12-11T06:20:58.451Z,-1.31
2022-12-11T06:23:25.081Z,-1.24
2022-12-11T06:25:51.706Z,-1.29
2022-12-11T06:28:18.301Z,-1.23
2022-12-11T06:30:45.119Z,-1.21
2022-12-11T06:33:11.726Z,-1.13
2022-12-11T06:35:42.071Z,-1.12
2022-12-11T06:38:10.747Z,-1.15
2022-12-11T06:40:37.757Z,-1.05
2022-12-11T06:43:04.339Z,-1.05
2022-12-11T06:45:31.042Z,-1.03
2022-12-11T06:47:58.710Z,-1.07
2022-12-11T06:50:25.325Z,-1.03
2022-12-11T06:52:52.123Z,-0.98
2022-12-11T06:55:18.705Z,-0.96
2022-12-11T06:57:45.301Z,-0.89
2022-12-11T07:00:12.789Z,-0.94
2022-12-11T07:02:39.417Z,-0.90
2022-12-11T07:05:06.859Z,-0.95
2022-12-11T07:07:34.457Z,-0.91
2022-12-11T07:10:07.676Z,-1.03
2022-12-11T07:12:35.194Z,-1.00
2022-12-11T07:15:01.801Z,-1.09
2022-12-11T07:17:29.515Z,-0.91
2022-12-11T07:19:56.258Z,-0.87
2022-12-11T07:22:22.865Z,-0.94
2022-12-11T07:24:49.564Z,-0.87
2022-12-11T07:27:16.258Z,-0.92
2022-12-11T07:29:42.901Z,-1.02
2022-12-11T07:32:09.780Z,-1.00
2022-12-11T07:34:36.711Z,-0.90
2022-12-11T07:37:03.779Z,-0.85
2022-12-11T07:39:30.365Z,-0.78
2022-12-11T07:41:56.993Z,-0.78
2022-12-11T07:44:23.767Z,-0.64
2022-12-11T07:46:50.428Z,-0.65
2022-12-11T07:49:16.997Z,-0.58
2022-12-11T07:51:43.659Z,-0.61
2022-12-11T07:54:16.764Z,-0.66
2022-12-11T07:56:46.492Z,-0.53
2022-12-11T07:59:16.829Z,-0.57
2022-12-11T08:01:43.676Z,-0.51
2022-12-11T08:04:11.865Z,-0.46
2022-12-11T08:06:40.162Z,-0.68
2022-12-11T08:09:10.515Z,-0.82
2022-12-11T08:11:38.471Z,-0.88
2022-12-11T08:14:06.767Z,-0.85
2022-12-11T08:16:33.608Z,-0.79
2022-12-11T08:19:00.476Z,-0.75
2022-12-11T08:21:28.510Z,-0.81
2022-12-11T08:23:56.090Z,-0.78
2022-12-11T08:26:26.137Z,-0.77
2022-12-11T08:28:52.896Z,-0.80
2022-12-11T08:31:21.294Z,-0.87
2022-12-11T08:33:48.598Z,-1.01
2022-12-11T08:36:18.357Z,-0.83
2022-12-11T08:38:44.966Z,-0.90
2022-12-11T08:41:16.953Z,-0.99
2022-12-11T08:43:44.019Z,-1.16
2022-12-11T08:46:11.744Z,-1.08
2022-12-11T08:48:40.239Z,-1.13
2022-12-11T08:51:11.228Z,-1.19
2022-12-11T08:53:38.934Z,-1.24
2022-12-11T08:56:08.600Z,-1.31
2022-12-11T08:58:35.921Z,-1.33
2022-12-11T09:01:10.982Z,-1.35
2022-12-11T09:03:38.398Z,-1.28
2022-12-11T09:06:07.420Z,-1.21
2022-12-11T09:08:34.339Z,-1.07
2022-12-11T09:11:10.173Z,-1.01
2022-12-11T09:13:38.814Z,-0.80
2022-12-11T09:16:08.016Z,-0.61
2022-12-11T09:18:34.804Z,-0.45
2022-12-11T09:21:10.785Z,-0.35
2022-12-11T09:23:37.719Z,-0.31
2022-12-11T09:26:06.149Z,-0.34
2022-12-11T09:28:33.233Z,-0.47
2022-12-11T09:30:59.944Z,-0.45
2022-12-11T09:33:26.462Z,-0.49
2022-12-11T09:35:59.826Z,-0.69
2022-12-11T09:38:26.515Z,-0.83
2022-12-11T09:40:54.039Z,-0.70
2022-12-11T09:43:46.334Z,-0.97
2022-12-11T09:46:15.461Z,-0.87
2022-12-11T09:48:45.923Z,-0.78
2022-12-11T09:51:28.122Z,-0.71
2022-12-11T09:53:56.896Z,-0.87
2022-12-11T09:56:36.638Z,-0.79
2022-12-11T09:59:38.661Z,-0.58
2022-12-11T10:02:43.672Z,-0.59
2022-12-11T10:05:34.923Z,-0.67
2022-12-11T10:08:30.988Z,-0.59
2022-12-11T10:11:18.270Z,-0.69
2022-12-11T10:13:57.310Z,-0.63
2022-12-11T10:16:52.232Z,-0.62
2022-12-11T10:19:24.522Z,-0.42
2022-12-11T10:21:52.655Z,-0.43
2022-12-11T10:27:31.309Z,-0.55
2022-12-11T10:30:31.614Z,-0.47
2022-12-11T10:33:22.831Z,-0.64
2022-12-11T10:35:54.835Z,-0.58
2022-12-11T10:38:30.176Z,-0.46
2022-12-11T10:40:58.972Z,-0.51
2022-12-11T10:43:37.601Z,-0.47
2022-12-11T10:46:05.541Z,-0.54
2022-12-11T10:48:32.154Z,-0.60
2022-12-11T10:51:07.244Z,-0.74
2022-12-11T10:53:34.878Z,-0.82
2022-12-11T10:56:02.619Z,-0.75
2022-12-11T10:58:33.991Z,-0.70
2022-12-11T11:01:03.840Z,-0.65
2022-12-11T11:03:30.672Z,-0.67
2022-12-11T11:06:17.312Z,-0.52
2022-12-11T11:08:52.730Z,-0.57
2022-12-11T11:11:24.905Z,-0.55
2022-12-11T11:13:52.024Z,-0.68
2022-12-11T11:16:22.055Z,-0.71
2022-12-11T11:18:55.073Z,-0.59
2022-12-11T11:21:25.709Z,-0.57
2022-12-11T11:23:54.044Z,-0.62
2022-12-11T11:26:22.981Z,-0.36
2022-12-11T11:28:52.408Z,-0.34
2022-12-11T11:31:20.989Z,-0.51
2022-12-11T11:34:08.565Z,-0.42
2022-12-11T11:36:36.979Z,-0.60
2022-12-11T11:39:23.243Z,-0.50
2022-12-11T11:42:00.491Z,-0.37
2022-12-11T11:44:36.907Z,-0.61
2022-12-11T11:47:42.585Z,-0.48
2022-12-11T11:50:18.344Z,-0.57
2022-12-11T11:53:11.057Z,-0.43
2022-12-11T11:55:51.871Z,-0.33
2022-12-11T11:58:56.243Z,-0.36
2022-12-11T12:01:23.639Z,-0.33
2022-12-11T12:03:51.920Z,-0.37
2022-12-11T12:06:48.964Z,-0.38
2022-12-11T12:09:45.988Z,-0.52
2022-12-11T12:12:39.463Z,-0.42
2022-12-11T12:15:21.917Z,-0.36
2022-12-11T12:18:37.986Z,-0.68
2022-12-11T12:21:26.885Z,-0.62
2022-12-11T12:24:22.476Z,-0.68
2022-12-11T12:26:57.463Z,-0.66
2022-12-11T12:29:56.805Z,-0.54
2022-12-11T12:33:04.691Z,-0.62
2022-12-11T12:35:40.150Z,-0.80
2022-12-11T12:38:14.543Z,-0.78
2022-12-11T12:44:21.039Z,-0.86
2022-12-11T12:46:57.385Z,-0.94
2022-12-11T12:49:42.868Z,-0.93
2022-12-11T12:52:20.845Z,-0.91
2022-12-11T12:55:11.376Z,-0.71
2022-12-11T12:57:40.107Z,-0.89
2022-12-11T13:00:13.065Z,-0.94
2022-12-11T13:02:51.102Z,-0.93
2022-12-11T13:05:33.343Z,-0.89
2022-12-11T13:08:04.547Z,-1.00
2022-12-11T13:10:34.932Z,-0.94
2022-12-11T13:13:03.789Z,-0.98
2022-12-11T13:15:48.569Z,-0.96
2022-12-11T13:18:36.555Z,-0.84
2022-12-11T13:21:29.787Z,-0.89
2022-12-11T13:24:14.033Z,-0.88
2022-12-11T13:26:41.195Z,-0.85
2022-12-11T13:29:53.703Z,-0.81
2022-12-11T13:32:24.324Z,-0.74
2022-12-11T13:34:55.456Z,-0.75
2022-12-11T13:37:34.812Z,-0.87
2022-12-11T13:40:06.004Z,-0.84
2022-12-11T13:42:36.040Z,-0.87
2022-12-11T13:45:04.275Z,-0.77
2022-12-11T13:47:32.235Z,-0.94
2022-12-11T13:50:20.809Z,-0.97
2022-12-11T13:52:58.760Z,-0.91
2022-12-11T13:55:34.060Z,-0.95
2022-12-11T13:58:01.076Z,-0.84
2022-12-11T14:00:30.415Z,-0.88
2022-12-11T14:03:01.152Z,-1.01
2022-12-11T14:05:28.503Z,-0.93
2022-12-11T14:08:02.918Z,-0.92
2022-12-11T14:10:32.897Z,-1.06
2022-12-11T14:13:06.043Z,-1.13
2022-12-11T14:15:35.558Z,-1.13
2022-12-11T14:18:04.183Z,-1.18
2022-12-11T14:20:33.897Z,-1.34
2022-12-11T14:23:18.055Z,-1.29
2022-12-11T14:25:58.753Z,-1.30
2022-12-11T14:28:27.855Z,-1.21
2022-12-11T14:30:59.683Z,-1.31
2022-12-11T14:33:32.087Z,-1.31
2022-12-11T14:35:59.849Z,-1.32
2022-12-11T14:38:43.371Z,-1.40
2022-12-11T14:41:27.360Z,-1.38
2022-12-11T14:43:59.168Z,-1.49
2022-12-11T14:46:43.866Z,-1.56
2022-12-11T14:49:34.420Z,-1.47
2022-12-11T14:52:01.780Z,-1.30
2022-12-11T14:54:36.536Z,-1.35
2022-12-11T14:57:06.627Z,-1.34
2022-12-11T14:59:40.542Z,-1.35
2022-12-11T15:02:33.482Z,-1.30
2022-12-11T15:05:12.404Z,-1.31
2022-12-11T15:07:41.131Z,-1.30
2022-12-11T15:10:20.889Z,-1.34
2022-12-11T15:12:47.569Z,-1.43
2022-12-11T15:15:15.686Z,-1.34
2022-12-11T15:17:42.742Z,-1.48
2022-12-11T15:20:20.008Z,-1.42
2022-12-11T15:22:46.659Z,-1.38
2022-12-11T15:25:25.078Z,-1.38
2022-12-11T15:27:55.516Z,-1.30
2022-12-11T15:30:32.907Z,-1.28
2022-12-11T15:33:11.444Z,-1.32
2022-12-11T15:35:40.328Z,-1.32
2022-12-11T15:38:24.901Z,-1.35
2022-12-11T15:40:51.457Z,-1.33
2022-12-11T15:43:18.000Z,-1.35
2022-12-11T15:45:44.704Z,-1.30
2022-12-11T15:48:11.423Z,-1.39
2022-12-11T15:50:37.994Z,-1.54
2022-12-11T15:53:04.732Z,-1.39
2022-12-11T15:55:34.914Z,-1.36
2022-12-11T15:58:05.895Z,-1.50
2022-12-11T16:00:32.507Z,-1.55
2022-12-11T16:02:59.232Z,-1.57
2022-12-11T16:05:26.815Z,-1.73
2022-12-11T16:07:59.506Z,-1.78
2022-12-11T16:10:27.178Z,-1.69
2022-12-11T16:12:56.645Z,-1.65
2022-12-11T16:15:24.338Z,-1.54
2022-12-11T16:18:05.976Z,-1.50
2022-12-11T16:20:33.642Z,-1.48
2022-12-11T16:23:00.474Z,-1.55
2022-12-11T16:25:28.050Z,-1.54
2022-12-11T16:27:59.861Z,-1.44
2022-12-11T16:30:27.925Z,-1.51
2022-12-11T16:32:54.864Z,-1.48
2022-12-11T16:35:22.557Z,-1.57
2022-12-11T16:37:50.919Z,-1.51
2022-12-11T16:40:18.101Z,-1.47
2022-12-11T16:42:44.791Z,-1.53
2022-12-11T16:45:14.850Z,-1.48
2022-12-11T16:47:41.666Z,-1.51
2022-12-11T16:50:09.025Z,-1.56
2022-12-11T16:52:35.768Z,-1.55
2022-12-11T16:55:02.371Z,-1.54
2022-12-11T16:57:28.903Z,-1.40
2022-12-11T16:59:55.438Z,-1.58
2022-12-11T17:02:22.367Z,-1.58
2022-12-11T17:04:53.638Z,-1.50
2022-12-11T17:07:20.720Z,-1.47
2022-12-11T17:09:47.464Z,-1.48
2022-12-11T17:12:13.998Z,-1.36
2022-12-11T17:14:40.717Z,-1.53
2022-12-11T17:17:07.390Z,-1.58
2022-12-11T17:19:33.988Z,-1.59
2022-12-11T17:22:00.660Z,-1.59
2022-12-11T17:24:27.399Z,-1.56
2022-12-11T17:26:55.460Z,-1.60
2022-12-11T17:29:22.180Z,-1.63
2022-12-11T17:31:48.748Z,-1.59
2022-12-11T17:34:15.954Z,-1.63
2022-12-11T17:36:42.729Z,-1.65
2022-12-11T17:39:09.304Z,-1.74
2022-12-11T17:41:35.859Z,-1.76
2022-12-11T17:44:02.574Z,-1.71
2022-12-11T17:46:29.288Z,-1.74
2022-12-11T17:48:56.714Z,-1.73
2022-12-11T17:51:24.582Z,-1.72
2022-12-11T17:53:52.695Z,-1.72
2022-12-11T17:56:19.652Z,-1.83
2022-12-11T17:58:46.384Z,-1.96
2022-12-11T18:01:13.402Z,-2.02
2022-12-11T18:03:40.846Z,-2.19
2022-12-11T18:06:10.847Z,-2.16
2022-12-11T18:08:38.143Z,-2.15
2022-12-11T18:11:13.951Z,-2.08
2022-12-11T18:13:41.198Z,-2.10
2022-12-11T18:16:17.874Z,-2.16
2022-12-11T18:18:46.180Z,-2.11
2022-12-11T18:21:15.235Z,-1.96
2022-12-11T18:23:41.980Z,-2.05
2022-12-11T18:26:08.676Z,-2.01
2022-12-11T18:28:35.260Z,-1.96
2022-12-11T18:31:03.491Z,-1.94
2022-12-11T18:33:32.163Z,-2.01
2022-12-11T18:35:58.762Z,-1.66
2022-12-11T18:38:25.479Z,-1.73
2022-12-11T18:40:52.123Z,-1.84
2022-12-11T18:43:18.714Z,-1.91
2022-12-11T18:45:45.647Z,-1.90
2022-12-11T18:48:13.411Z,-1.95
2022-12-11T18:50:48.403Z,-2.02
2022-12-11T18:53:15.419Z,-2.05
2022-12-11T18:55:45.027Z,-2.03
2022-12-11T18:58:12.884Z,-2.03
2022-12-11T19:00:40.750Z,-1.90
2022-12-11T19:03:08.580Z,-1.82
2022-12-11T19:05:36.232Z,-1.86
2022-12-11T19:08:03.781Z,-1.90
2022-12-11T19:10:30.394Z,-1.87
2022-12-11T19:12:57.056Z,-1.78
2022-12-11T19:15:24.336Z,-1.84
2022-12-11T19:17:51.327Z,-1.83
2022-12-11T19:20:47.399Z,-1.83
2022-12-11T19:23:04.963Z,-1.79
2022-12-11T19:25:32.062Z,-1.82
2022-12-11T19:27:58.649Z,-1.79
2022-12-11T19:30:25.219Z,-1.83
2022-12-11T19:32:51.836Z,-1.88
2022-12-11T19:35:18.387Z,-1.93
2022-12-11T19:37:45.041Z,-2.05
2022-12-11T19:40:11.784Z,-2.04
2022-12-11T19:42:38.308Z,-2.01
2022-12-11T19:45:05.434Z,-2.02
2022-12-11T19:47:32.023Z,-2.12
2022-12-11T19:49:58.615Z,-2.10
2022-12-11T19:52:25.177Z,-2.07
2022-12-11T19:54:51.775Z,-2.14
2022-12-11T19:57:18.313Z,-2.09
2022-12-11T19:59:44.970Z,-2.23
2022-12-11T20:02:12.209Z,-2.24
2022-12-11T20:04:38.803Z,-2.13
2022-12-11T20:07:05.436Z,-2.19
2022-12-11T20:09:33.646Z,-2.08
2022-12-11T20:12:00.259Z,-2.10
2022-12-11T20:14:26.926Z,-2.18
2022-12-11T20:17:11.353Z,-2.23
2022-12-11T20:19:40.040Z,-2.06
2022-12-11T20:22:06.834Z,-2.15
2022-12-11T20:24:33.561Z,-2.27
2022-12-11T20:27:00.264Z,-2.31
2022-12-11T20:29:26.958Z,-2.35
2022-12-11T20:31:53.701Z,-2.39
2022-12-11T20:34:20.404Z,-2.34
2022-12-11T20:36:48.347Z,-2.26
2022-12-11T20:39:15.648Z,-2.28
2022-12-11T20:41:42.389Z,-2.31
2022-12-11T20:44:08.965Z,-2.39
2022-12-11T20:46:35.549Z,-2.42
2022-12-11T20:49:02.110Z,-2.42
2022-12-11T20:51:29.166Z,-2.42
2022-12-11T20:53:59.677Z,-2.45
2022-12-11T20:56:28.622Z,-2.39
2022-12-11T20:58:55.721Z,-2.31
2022-12-11T21:01:25.344Z,-2.36
2022-12-11T21:03:53.526Z,-2.30
2022-12-11T21:06:31.526Z,-2.24
2022-12-11T21:09:05.475Z,-2.31
2022-12-11T21:11:32.044Z,-2.27
2022-12-11T21:13:58.636Z,-2.17
2022-12-11T21:16:25.485Z,-2.24
2022-12-11T21:18:52.147Z,-2.25
2022-12-11T21:21:18.812Z,-2.25
2022-12-11T21:23:45.365Z,-2.19
2022-12-11T21:26:12.699Z,-2.22
2022-12-11T21:28:39.330Z,-2.28
2022-12-11T21:31:11.399Z,-2.21
2022-12-11T21:33:38.010Z,-2.20
2022-12-11T21:36:06.230Z,-2.30
2022-12-11T21:38:33.399Z,-2.24
2022-12-11T21:41:10.224Z,-2.28
2022-12-11T21:43:43.385Z,-2.26
2022-12-11T21:46:26.134Z,-2.21
2022-12-11T21:48:52.881Z,-2.19
2022-12-11T21:51:29.673Z,-2.25
2022-12-11T21:53:59.210Z,-2.36
2022-12-11T21:56:28.339Z,-2.29
2022-12-11T21:58:55.419Z,-2.27
2022-12-11T22:01:29.227Z,-2.24
2022-12-11T22:03:56.104Z,-2.23
2022-12-11T22:06:22.915Z,-2.22
2022-12-11T22:08:50.427Z,-2.19
2022-12-11T22:11:21.686Z,-2.28
2022-12-11T22:13:49.341Z,-2.37
2022-12-11T22:16:16.054Z,-2.59
2022-12-11T22:18:42.630Z,-2.50
2022-12-11T22:21:09.341Z,-2.49
2022-12-11T22:23:38.346Z,-2.44
2022-12-11T22:26:09.665Z,-2.61
2022-12-11T22:28:36.214Z,-2.56
2022-12-11T22:31:02.830Z,-2.62
2022-12-11T22:33:29.593Z,-2.72
2022-12-11T22:35:58.300Z,-2.82
2022-12-11T22:38:26.119Z,-2.83
2022-12-11T22:40:53.893Z,-2.88
2022-12-11T22:43:20.805Z,-2.86
2022-12-11T22:45:47.643Z,-2.84
2022-12-11T22:48:14.328Z,-2.84
2022-12-11T22:50:41.617Z,-2.79
2022-12-11T22:53:08.509Z,-2.75
2022-12-11T22:55:38.764Z,-2.72
2022-12-11T22:58:05.455Z,-2.89
2022-12-11T23:00:32.034Z,-2.98
2022-12-11T23:02:58.843Z,-3.04
2022-12-11T23:05:25.503Z,-2.97
2022-12-11T23:07:52.274Z,-2.96
2022-12-11T23:10:19.447Z,-2.93
2022-12-11T23:12:46.069Z,-3.02
2022-12-11T23:15:13.208Z,-3.14
2022-12-11T23:17:40.025Z,-3.17
2022-12-11T23:20:07.388Z,-3.13
2022-12-11T23:22:34.134Z,-3.18
2022-12-11T23:25:00.995Z,-3.16
2022-12-11T23:27:28.055Z,-3.06
2022-12-11T23:29:55.256Z,-3.03
2022-12-11T23:32:22.502Z,-2.97
2022-12-11T23:34:49.057Z,-3.08
2022-12-11T23:37:15.676Z,-3.08
2022-12-11T23:39:42.453Z,-3.24
2022-12-11T23:42:09.434Z,-3.31
2022-12-11T23:44:36.265Z,-3.40
2022-12-11T23:47:02.868Z,-3.52
2022-12-11T23:49:30.094Z,-3.50
2022-12-11T23:51:56.759Z,-3.68
2022-12-11T23:54:23.264Z,-3.81
2022-12-11T23:56:50.096Z,-3.64
2022-12-11T23:59:16.933Z,-3.78
